Time;durP1;ratioP1;P1;durP2;ratioP2;P2;SDS_P1;SDS_P2;PMS_P1;PMS_P2;Temp;Humidity;BMP_temperature;BMP_pressure;BME280_temperature;BME280_humidity;BME280_pressure;Samples;Min_cycle;Max_cycle;Signal;HPM_P1;HPM_P2
2021/01/23 00:00:00;;;;;;;23.13;15.77;;;;;;;;;;5078042;28;20294;-76
2021/01/23 00:02:26;;;;;;;23.20;17.05;;;;;;;;;;5069190;28;20685;-75
2021/01/23 00:04:52;;;;;;;25.27;16.65;;;;;;;;;;5081139;28;20641;-77
2021/01/23 00:07:18;;;;;;;26.60;16.92;;;;;;;;;;5089100;28;20199;-76
2021/01/23 00:09:44;;;;;;;25.27;17.15;;;;;;;;;;5090268;28;20187;-76
2021/01/23 00:12:10;;;;;;;31.98;16.70;;;;;;;;;;5089068;28;20239;-75
2021/01/23 00:14:36;;;;;;;27.95;18.33;;;;;;;;;;5088729;28;20571;-74
2021/01/23 00:17:02;;;;;;;30.88;18.27;;;;;;;;;;5070811;28;20187;-75
2021/01/23 00:19:29;;;;;;;27.02;17.17;;;;;;;;;;5075728;28;20187;-75
2021/01/23 00:21:55;;;;;;;22.80;16.30;;;;;;;;;;5088179;28;20224;-75
2021/01/23 00:24:21;;;;;;;25.10;17.00;;;;;;;;;;5077084;28;20191;-74
2021/01/23 00:26:47;;;;;;;30.05;17.08;;;;;;;;;;5077767;28;20187;-77
2021/01/23 00:29:14;;;;;;;28.75;17.13;;;;;;;;;;5088287;28;20183;-77
2021/01/23 00:31:40;;;;;;;29.20;17.95;;;;;;;;;;5096655;28;20203;-74
2021/01/23 00:34:07;;;;;;;30.15;17.55;;;;;;;;;;5100431;28;20241;-74
2021/01/23 00:36:33;;;;;;;33.03;19.00;;;;;;;;;;5094226;28;20178;-77
2021/01/23 00:38:59;;;;;;;24.58;17.95;;;;;;;;;;5076910;28;20544;-73
2021/01/23 00:41:28;;;;;;;25.77;17.48;;;;;;;;;;5080726;28;20183;-76
2021/01/23 00:43:54;;;;;;;27.35;17.98;;;;;;;;;;5076370;28;20199;-75
2021/01/23 00:46:21;;;;;;;29.15;18.90;;;;;;;;;;5076619;28;20259;-74
2021/01/23 00:48:47;;;;;;;28.98;18.05;;;;;;;;;;5076449;28;20180;-74
2021/01/23 00:51:13;;;;;;;29.20;17.98;;;;;;;;;;5080731;28;20229;-75
2021/01/23 00:53:39;;;;;;;37.05;23.95;;;;;;;;;;5087204;28;20298;-76
2021/01/23 00:56:06;;;;;;;27.10;18.20;;;;;;;;;;5078868;28;20199;-74
2021/01/23 00:58:32;;;;;;;31.45;19.45;;;;;;;;;;5095697;28;20537;-74
2021/01/23 01:00:58;;;;;;;29.95;18.67;;;;;;;;;;5095991;28;20178;-76
2021/01/23 01:03:24;;;;;;;27.42;19.30;;;;;;;;;;5096250;28;20187;-75
2021/01/23 01:05:50;;;;;;;25.23;17.80;;;;;;;;;;5095601;28;20675;-74
2021/01/23 01:08:17;;;;;;;30.65;19.23;;;;;;;;;;5096957;28;20179;-76
2021/01/23 01:10:45;;;;;;;27.75;18.80;;;;;;;;;;5085205;28;20184;-75
2021/01/23 01:13:12;;;;;;;29.55;18.63;;;;;;;;;;5075712;28;20211;-76
2021/01/23 01:15:38;;;;;;;28.33;18.55;;;;;;;;;;5074999;28;20179;-76
2021/01/23 01:18:04;;;;;;;30.15;18.98;;;;;;;;;;5075912;28;20733;-74
2021/01/23 01:20:30;;;;;;;31.83;19.17;;;;;;;;;;5075390;28;20168;-74
2021/01/23 01:22:56;;;;;;;31.13;20.10;;;;;;;;;;5075281;28;20262;-74
2021/01/23 01:25:22;;;;;;;32.97;20.17;;;;;;;;;;5075218;28;20173;-74
2021/01/23 01:27:48;;;;;;;36.38;19.65;;;;;;;;;;5075689;28;20176;-74
2021/01/23 01:30:15;;;;;;;29.00;19.60;;;;;;;;;;5081573;28;20218;-76
2021/01/23 01:32:41;;;;;;;26.80;19.05;;;;;;;;;;5095068;28;20290;-76
2021/01/23 01:35:08;;;;;;;30.25;19.75;;;;;;;;;;5095063;28;20226;-74
2021/01/23 01:37:34;;;;;;;42.83;21.15;;;;;;;;;;5095492;28;20254;-76
2021/01/23 01:40:00;;;;;;;29.92;19.52;;;;;;;;;;5095370;28;20171;-75
2021/01/23 01:42:26;;;;;;;29.83;19.88;;;;;;;;;;5095397;28;20248;-75
2021/01/23 01:44:53;;;;;;;29.55;19.92;;;;;;;;;;5095204;28;20178;-73
2021/01/23 01:47:20;;;;;;;30.90;20.65;;;;;;;;;;5095313;28;20553;-77
2021/01/23 01:49:47;;;;;;;35.95;19.30;;;;;;;;;;5094866;28;20190;-76
2021/01/23 01:52:13;;;;;;;32.92;20.83;;;;;;;;;;5095066;28;20553;-75
2021/01/23 01:54:40;;;;;;;28.88;20.10;;;;;;;;;;5094873;28;20171;-75
2021/01/23 01:57:06;;;;;;;33.60;19.70;;;;;;;;;;5095265;28;20182;-75
2021/01/23 01:59:32;;;;;;;33.42;19.95;;;;;;;;;;5094976;28;20317;-75
2021/01/23 02:02:11;;;;;;;29.33;20.60;;;;;;;;;;5094315;28;20268;-73
2021/01/23 02:04:43;;;;;;;29.00;19.38;;;;;;;;;;5092850;28;20179;-74
2021/01/23 02:07:19;;;;;;;27.92;19.38;;;;;;;;;;5094984;28;20218;-74
2021/01/23 02:09:45;;;;;;;31.35;21.00;;;;;;;;;;5092886;28;20204;-75
2021/01/23 02:12:26;;;;;;;33.58;20.30;;;;;;;;;;5077810;28;20199;-75
2021/01/23 02:14:59;;;;;;;31.42;20.55;;;;;;;;;;5081172;28;20163;-74
2021/01/23 02:17:29;;;;;;;30.35;21.33;;;;;;;;;;5093069;28;20190;-75
2021/01/23 02:20:04;;;;;;;36.65;23.13;;;;;;;;;;5074175;28;20514;-76
2021/01/23 02:22:44;;;;;;;38.53;22.13;;;;;;;;;;5086391;28;20285;-74
2021/01/23 02:25:11;;;;;;;33.55;21.15;;;;;;;;;;5083779;28;20180;-74
2021/01/23 02:27:45;;;;;;;31.65;21.08;;;;;;;;;;5085806;28;20180;-76
2021/01/23 02:30:14;;;;;;;40.80;22.38;;;;;;;;;;5093187;28;20167;-74
2021/01/23 02:32:40;;;;;;;34.70;21.75;;;;;;;;;;5091524;28;20227;-76
2021/01/23 02:35:08;;;;;;;38.95;22.17;;;;;;;;;;5093879;28;20585;-76
2021/01/23 02:37:35;;;;;;;33.72;21.10;;;;;;;;;;5077627;28;20536;-77
2021/01/23 02:40:01;;;;;;;33.25;21.90;;;;;;;;;;5094269;28;20187;-76
2021/01/23 02:42:27;;;;;;;32.00;21.70;;;;;;;;;;5092983;28;20215;-75
2021/01/23 02:44:53;;;;;;;36.05;22.45;;;;;;;;;;5093616;28;20175;-74
2021/01/23 02:47:19;;;;;;;34.13;21.73;;;;;;;;;;5090955;28;20180;-74
2021/01/23 02:49:46;;;;;;;32.17;21.15;;;;;;;;;;5094304;28;20171;-75
2021/01/23 02:52:17;;;;;;;33.10;21.73;;;;;;;;;;5086798;28;20203;-75
2021/01/23 02:54:55;;;;;;;31.77;22.25;;;;;;;;;;5093826;28;20203;-75
2021/01/23 02:57:22;;;;;;;33.13;21.65;;;;;;;;;;5086820;28;20180;-78
2021/01/23 02:59:50;;;;;;;35.50;22.10;;;;;;;;;;5073675;28;20176;-77
2021/01/23 03:02:19;;;;;;;36.38;23.02;;;;;;;;;;5088943;28;20207;-75
2021/01/23 03:04:46;;;;;;;36.25;22.95;;;;;;;;;;5091765;28;20210;-76
2021/01/23 03:07:15;;;;;;;41.38;23.30;;;;;;;;;;5093585;28;20202;-76
2021/01/23 03:09:41;;;;;;;34.33;22.27;;;;;;;;;;5105316;28;20181;-74
2021/01/23 03:12:08;;;;;;;36.75;22.50;;;;;;;;;;5093587;28;20611;-76
2021/01/23 03:14:34;;;;;;;33.92;23.30;;;;;;;;;;5093199;28;20168;-75
2021/01/23 03:17:01;;;;;;;33.25;23.50;;;;;;;;;;5084855;28;20176;-76
2021/01/23 03:19:27;;;;;;;35.22;22.30;;;;;;;;;;5079659;28;20247;-76
2021/01/23 03:21:53;;;;;;;36.03;21.88;;;;;;;;;;5082877;28;20211;-75
2021/01/23 03:24:20;;;;;;;42.28;24.38;;;;;;;;;;5093217;28;20164;-74
2021/01/23 03:26:46;;;;;;;35.45;22.17;;;;;;;;;;5092767;28;20206;-75
2021/01/23 03:29:13;;;;;;;34.35;22.23;;;;;;;;;;5085876;28;20202;-74
2021/01/23 03:31:39;;;;;;;42.75;23.27;;;;;;;;;;5092972;28;20196;-77
2021/01/23 03:34:06;;;;;;;37.22;22.35;;;;;;;;;;5086026;28;20433;-77
2021/01/23 03:36:33;;;;;;;37.22;24.50;;;;;;;;;;5089925;28;20167;-76
2021/01/23 03:38:59;;;;;;;35.38;22.77;;;;;;;;;;5093330;28;20174;-76
2021/01/23 03:41:26;;;;;;;38.60;23.33;;;;;;;;;;5096785;28;20232;-73
2021/01/23 03:43:52;;;;;;;35.65;22.73;;;;;;;;;;5086211;28;20186;-72
2021/01/23 03:46:18;;;;;;;32.08;22.13;;;;;;;;;;5080616;28;20188;-75
2021/01/23 03:48:44;;;;;;;39.67;25.00;;;;;;;;;;5090589;28;20171;-74
2021/01/23 03:51:10;;;;;;;40.17;24.60;;;;;;;;;;5093372;28;20298;-73
2021/01/23 03:53:36;;;;;;;44.03;26.48;;;;;;;;;;5085253;28;20199;-76
2021/01/23 03:56:02;;;;;;;46.45;25.88;;;;;;;;;;5080387;28;20176;-75
2021/01/23 03:58:29;;;;;;;40.55;26.38;;;;;;;;;;5088879;28;20524;-75
2021/01/23 04:00:55;;;;;;;42.95;25.27;;;;;;;;;;5091211;28;20181;-76
2021/01/23 04:03:21;;;;;;;39.72;25.50;;;;;;;;;;5096708;28;20237;-75
2021/01/23 04:05:47;;;;;;;44.17;26.33;;;;;;;;;;5085769;28;20187;-76
2021/01/23 04:08:13;;;;;;;36.05;23.88;;;;;;;;;;5096065;28;20175;-75
2021/01/23 04:10:39;;;;;;;38.83;25.50;;;;;;;;;;5095650;28;20171;-74
2021/01/23 04:13:05;;;;;;;43.60;25.67;;;;;;;;;;5089433;28;20208;-73
2021/01/23 04:15:31;;;;;;;39.75;25.30;;;;;;;;;;5090748;28;20183;-74
2021/01/23 04:17:57;;;;;;;35.58;23.75;;;;;;;;;;5076597;28;20179;-76
2021/01/23 04:20:24;;;;;;;36.42;23.75;;;;;;;;;;5095402;28;20225;-77
2021/01/23 04:22:50;;;;;;;37.88;22.73;;;;;;;;;;5096252;28;20203;-75
2021/01/23 04:25:16;;;;;;;38.72;24.80;;;;;;;;;;5096356;28;20254;-74
2021/01/23 04:27:42;;;;;;;38.30;25.25;;;;;;;;;;5085422;28;20180;-75
2021/01/23 04:30:09;;;;;;;42.10;24.92;;;;;;;;;;5095307;28;20183;-75
2021/01/23 04:32:36;;;;;;;36.67;23.35;;;;;;;;;;5096482;28;20671;-75
2021/01/23 04:35:09;;;;;;;39.40;24.33;;;;;;;;;;5096193;28;20655;-74
2021/01/23 04:37:36;;;;;;;44.17;24.25;;;;;;;;;;5084115;28;20180;-75
2021/01/23 04:40:02;;;;;;;38.63;23.95;;;;;;;;;;5089945;28;20583;-74
2021/01/23 04:42:28;;;;;;;41.90;25.58;;;;;;;;;;5096240;28;20208;-74
2021/01/23 04:44:54;;;;;;;39.83;22.73;;;;;;;;;;5077110;28;20268;-75
2021/01/23 04:47:20;;;;;;;42.42;24.63;;;;;;;;;;5075909;28;20180;-75
2021/01/23 04:49:47;;;;;;;36.92;24.27;;;;;;;;;;5079965;28;20194;-74
2021/01/23 04:52:14;;;;;;;38.25;25.13;;;;;;;;;;5096074;28;20203;-74
2021/01/23 04:54:43;;;;;;;45.53;25.42;;;;;;;;;;5090191;28;20630;-76
2021/01/23 04:57:09;;;;;;;36.05;25.08;;;;;;;;;;5077787;28;20688;-75
2021/01/23 04:59:35;;;;;;;44.72;27.25;;;;;;;;;;5082911;28;20817;-76
2021/01/23 05:02:13;;;;;;;42.00;26.58;;;;;;;;;;5089283;28;20668;-75
2021/01/23 05:04:42;;;;;;;41.53;24.80;;;;;;;;;;5086598;28;20198;-76
2021/01/23 05:07:09;;;;;;;43.85;26.52;;;;;;;;;;5080602;28;20766;-75
2021/01/23 05:09:35;;;;;;;41.42;25.52;;;;;;;;;;5089995;28;20190;-76
2021/01/23 05:12:01;;;;;;;41.95;26.60;;;;;;;;;;5093727;28;20199;-79
2021/01/23 05:14:27;;;;;;;46.53;27.60;;;;;;;;;;5077786;28;20684;-75
2021/01/23 05:16:53;;;;;;;40.50;25.25;;;;;;;;;;5081647;28;20243;-74
2021/01/23 05:19:19;;;;;;;38.30;24.98;;;;;;;;;;5088291;28;20179;-75
2021/01/23 05:22:00;;;;;;;39.20;24.80;;;;;;;;;;5095828;28;20198;-77
2021/01/23 05:24:26;;;;;;;38.85;22.80;;;;;;;;;;5077980;28;20180;-75
2021/01/23 05:26:56;;;;;;;41.30;23.85;;;;;;;;;;5076008;28;20203;-73
2021/01/23 05:29:22;;;;;;;43.35;24.50;;;;;;;;;;5095508;28;20263;-75
2021/01/23 05:32:08;;;;;;;42.83;25.80;;;;;;;;;;5095344;28;20203;-76
2021/01/23 05:34:34;;;;;;;42.40;28.10;;;;;;;;;;5091149;28;20183;-77
2021/01/23 05:37:00;;;;;;;42.00;27.13;;;;;;;;;;5084677;28;20183;-75
2021/01/23 05:39:45;;;;;;;43.30;27.15;;;;;;;;;;5085809;28;20577;-76
2021/01/23 05:42:11;;;;;;;43.42;28.15;;;;;;;;;;5095066;28;20278;-74
2021/01/23 05:44:37;;;;;;;51.22;31.88;;;;;;;;;;5090374;28;20238;-76
2021/01/23 05:47:23;;;;;;;46.22;27.35;;;;;;;;;;5082062;28;20599;-76
2021/01/23 05:49:51;;;;;;;46.03;28.20;;;;;;;;;;5092788;28;20179;-72
2021/01/23 05:52:19;;;;;;;43.72;24.92;;;;;;;;;;5094736;28;20203;-74
2021/01/23 05:54:45;;;;;;;41.17;25.95;;;;;;;;;;5094758;28;20167;-73
2021/01/23 05:57:11;;;;;;;42.33;26.90;;;;;;;;;;5094887;28;20632;-75
2021/01/23 05:59:40;;;;;;;43.58;26.67;;;;;;;;;;5090456;28;20191;-76
2021/01/23 06:02:08;;;;;;;40.78;25.10;;;;;;;;;;5084939;28;20207;-74
2021/01/23 06:04:34;;;;;;;46.60;26.33;;;;;;;;;;5089197;28;20186;-76
2021/01/23 06:07:00;;;;;;;43.47;25.90;;;;;;;;;;5085445;28;20653;-73
2021/01/23 06:09:35;;;;;;;41.92;25.13;;;;;;;;;;5085674;28;20571;-74
2021/01/23 06:12:01;;;;;;;41.17;24.58;;;;;;;;;;5093196;28;20275;-73
2021/01/23 06:14:37;;;;;;;42.38;24.75;;;;;;;;;;5090153;28;20579;-73
2021/01/23 06:17:03;;;;;;;40.03;24.23;;;;;;;;;;5092344;28;20191;-76
2021/01/23 06:19:29;;;;;;;39.25;24.50;;;;;;;;;;5095409;28;20632;-76
2021/01/23 06:21:55;;;;;;;37.15;24.40;;;;;;;;;;5094656;28;20207;-73
2021/01/23 06:24:30;;;;;;;41.97;26.17;;;;;;;;;;5094093;28;20175;-74
2021/01/23 06:26:57;;;;;;;48.20;27.52;;;;;;;;;;5092442;28;20171;-76
2021/01/23 06:29:32;;;;;;;42.85;26.80;;;;;;;;;;5092339;28;20167;-73
2021/01/23 06:31:58;;;;;;;48.75;27.85;;;;;;;;;;5084701;28;20199;-73
2021/01/23 06:34:25;;;;;;;45.75;28.08;;;;;;;;;;5087247;28;20172;-75
2021/01/23 06:37:21;;;;;;;51.45;27.25;;;;;;;;;;5080690;28;20624;-74
2021/01/23 06:39:56;;;;;;;49.72;25.98;;;;;;;;;;5083475;28;20270;-74
2021/01/23 06:42:22;;;;;;;42.05;26.10;;;;;;;;;;5092918;28;20591;-74
2021/01/23 06:44:48;;;;;;;43.42;26.77;;;;;;;;;;5082890;28;20180;-74
2021/01/23 06:47:14;;;;;;;47.75;27.73;;;;;;;;;;5094355;28;20211;-75
2021/01/23 06:49:41;;;;;;;51.88;26.98;;;;;;;;;;5088431;28;20180;-73
2021/01/23 06:52:07;;;;;;;46.60;26.98;;;;;;;;;;5076150;28;20196;-73
2021/01/23 06:54:34;;;;;;;44.55;27.17;;;;;;;;;;5087211;28;20189;-76
2021/01/23 06:57:01;;;;;;;46.83;26.15;;;;;;;;;;5078694;28;20172;-75
2021/01/23 06:59:27;;;;;;;44.58;26.70;;;;;;;;;;5087224;28;20229;-74
2021/01/23 07:02:03;;;;;;;48.70;25.98;;;;;;;;;;5091689;28;20596;-73
2021/01/23 07:04:30;;;;;;;55.75;27.90;;;;;;;;;;5084951;28;20209;-75
2021/01/23 07:06:57;;;;;;;46.45;27.65;;;;;;;;;;5090463;28;20191;-77
2021/01/23 07:09:42;;;;;;;47.80;27.80;;;;;;;;;;5074318;28;20208;-75
2021/01/23 07:12:08;;;;;;;51.33;28.70;;;;;;;;;;5088802;28;20191;-74
2021/01/23 07:14:34;;;;;;;49.40;28.45;;;;;;;;;;5093078;28;20181;-72
2021/01/23 07:17:00;;;;;;;48.70;27.02;;;;;;;;;;5087754;28;20176;-74
2021/01/23 07:19:27;;;;;;;54.17;28.02;;;;;;;;;;5086715;28;20183;-76
2021/01/23 07:21:54;;;;;;;44.65;26.10;;;;;;;;;;5093009;28;20234;-75
2021/01/23 07:24:20;;;;;;;49.80;27.70;;;;;;;;;;5092678;28;20772;-75
2021/01/23 07:26:47;;;;;;;48.88;27.73;;;;;;;;;;5093537;28;20199;-77
2021/01/23 07:29:13;;;;;;;46.85;26.73;;;;;;;;;;5082613;28;20176;-75
2021/01/23 07:31:39;;;;;;;51.97;27.38;;;;;;;;;;5080557;28;20222;-72
2021/01/23 07:34:10;;;;;;;53.33;28.58;;;;;;;;;;5082956;28;20234;-75
2021/01/23 07:36:43;;;;;;;53.00;28.58;;;;;;;;;;5089764;28;20182;-74
2021/01/23 07:39:09;;;;;;;52.67;28.20;;;;;;;;;;5073372;28;20182;-74
2021/01/23 07:41:36;;;;;;;46.90;28.05;;;;;;;;;;5084574;28;20181;-76
2021/01/23 07:44:04;;;;;;;45.97;25.50;;;;;;;;;;5092428;28;20662;-74
2021/01/23 07:46:40;;;;;;;48.67;26.80;;;;;;;;;;5092482;28;20261;-76
2021/01/23 07:49:07;;;;;;;47.42;28.00;;;;;;;;;;5092921;28;20296;-76
2021/01/23 07:51:33;;;;;;;46.70;26.70;;;;;;;;;;5083594;28;20268;-76
2021/01/23 07:54:09;;;;;;;48.20;27.33;;;;;;;;;;5081535;28;20213;-77
2021/01/23 07:56:36;;;;;;;48.20;25.08;;;;;;;;;;5093047;28;20191;-76
2021/01/23 07:59:02;;;;;;;61.03;28.95;;;;;;;;;;5092693;28;20169;-76
2021/01/23 08:01:28;;;;;;;47.10;26.10;;;;;;;;;;5088087;28;20310;-77
2021/01/23 08:03:55;;;;;;;46.50;26.92;;;;;;;;;;5077431;28;20179;-73
2021/01/23 08:06:24;;;;;;;58.35;32.15;;;;;;;;;;5078900;28;20195;-74
2021/01/23 08:08:51;;;;;;;46.03;28.02;;;;;;;;;;5092322;28;20174;-76
2021/01/23 08:11:37;;;;;;;51.28;28.90;;;;;;;;;;5074829;28;20181;-74
2021/01/23 08:14:06;;;;;;;65.22;35.92;;;;;;;;;;5091653;28;20268;-75
2021/01/23 08:16:33;;;;;;;58.63;29.55;;;;;;;;;;5092830;28;20179;-74
2021/01/23 08:19:06;;;;;;;54.25;30.50;;;;;;;;;;5089818;28;20180;-76
2021/01/23 08:21:32;;;;;;;50.17;29.23;;;;;;;;;;5080640;28;20271;-75
2021/01/23 08:23:58;;;;;;;47.78;27.13;;;;;;;;;;5086020;28;20203;-74
2021/01/23 08:26:38;;;;;;;49.03;25.38;;;;;;;;;;5091407;28;20205;-77
2021/01/23 08:29:04;;;;;;;42.83;24.55;;;;;;;;;;5092343;28;20179;-75
2021/01/23 08:31:30;;;;;;;39.95;24.17;;;;;;;;;;5092913;28;20176;-77
2021/01/23 08:33:57;;;;;;;41.67;25.02;;;;;;;;;;5091548;28;20263;-73
2021/01/23 08:36:27;;;;;;;43.20;26.20;;;;;;;;;;5085038;28;20227;-74
2021/01/23 08:38:57;;;;;;;38.53;25.23;;;;;;;;;;5092712;28;20164;-77
2021/01/23 08:41:23;;;;;;;42.65;26.63;;;;;;;;;;5095181;28;20175;-74
2021/01/23 08:43:49;;;;;;;43.65;26.25;;;;;;;;;;5089917;28;20172;-76
2021/01/23 08:46:16;;;;;;;43.60;25.17;;;;;;;;;;5083731;28;20180;-75
2021/01/23 08:48:42;;;;;;;40.53;23.30;;;;;;;;;;5083946;28;20184;-74
2021/01/23 08:51:08;;;;;;;44.35;24.90;;;;;;;;;;5096088;28;20270;-75
2021/01/23 08:53:34;;;;;;;42.10;26.20;;;;;;;;;;5077116;28;20253;-74
2021/01/23 08:56:00;;;;;;;43.28;26.13;;;;;;;;;;5085844;28;20175;-76
2021/01/23 08:58:26;;;;;;;43.47;25.17;;;;;;;;;;5082592;28;20189;-76
2021/01/23 09:00:52;;;;;;;40.83;25.35;;;;;;;;;;5084432;28;20678;-75
2021/01/23 09:03:18;;;;;;;46.65;27.88;;;;;;;;;;5079410;28;20548;-77
2021/01/23 09:05:44;;;;;;;41.58;25.85;;;;;;;;;;5090774;28;20521;-75
2021/01/23 09:08:10;;;;;;;38.90;25.73;;;;;;;;;;5096007;28;20183;-73
2021/01/23 09:10:36;;;;;;;44.78;25.55;;;;;;;;;;5084228;28;20184;-76
2021/01/23 09:13:03;;;;;;;38.63;24.35;;;;;;;;;;5083602;28;20742;-75
2021/01/23 09:15:29;;;;;;;44.92;26.52;;;;;;;;;;5095342;28;20179;-76
2021/01/23 09:17:55;;;;;;;41.08;26.77;;;;;;;;;;5090823;28;20196;-75
2021/01/23 09:20:21;;;;;;;41.33;26.42;;;;;;;;;;5086293;28;20646;-77
2021/01/23 09:22:47;;;;;;;42.85;25.70;;;;;;;;;;5091027;28;20188;-75
2021/01/23 09:25:13;;;;;;;43.90;26.23;;;;;;;;;;5077599;28;20586;-74
2021/01/23 09:27:39;;;;;;;41.28;25.35;;;;;;;;;;5077101;28;20188;-76
2021/01/23 09:30:06;;;;;;;49.88;26.17;;;;;;;;;;5093618;28;20210;-72
2021/01/23 09:32:32;;;;;;;43.35;26.25;;;;;;;;;;5095366;28;20231;-74
2021/01/23 09:34:58;;;;;;;41.83;24.98;;;;;;;;;;5095309;28;20172;-73
2021/01/23 09:37:25;;;;;;;40.28;25.00;;;;;;;;;;5095467;28;20225;-74
2021/01/23 09:39:52;;;;;;;37.03;24.30;;;;;;;;;;5091635;28;20647;-73
2021/01/23 09:42:18;;;;;;;38.22;24.45;;;;;;;;;;5092296;28;20215;-75
2021/01/23 09:44:44;;;;;;;39.13;24.50;;;;;;;;;;5073368;28;20180;-77
2021/01/23 09:47:13;;;;;;;37.92;23.38;;;;;;;;;;5094887;28;20175;-74
2021/01/23 09:49:39;;;;;;;35.45;23.35;;;;;;;;;;5095146;28;20183;-77
2021/01/23 09:52:06;;;;;;;47.03;25.02;;;;;;;;;;5085868;28;20204;-76
2021/01/23 09:54:32;;;;;;;36.47;24.27;;;;;;;;;;5087308;28;20187;-74
2021/01/23 09:56:58;;;;;;;40.20;25.38;;;;;;;;;;5075830;28;20266;-74
2021/01/23 09:59:24;;;;;;;35.63;24.38;;;;;;;;;;5098001;28;20182;-74
2021/01/23 10:01:51;;;;;;;41.03;24.67;;;;;;;;;;5093873;28;21026;-73
2021/01/23 10:04:17;;;;;;;37.80;23.45;;;;;;;;;;5078702;28;20683;-73
2021/01/23 10:06:43;;;;;;;33.80;23.05;;;;;;;;;;5071173;28;20196;-76
2021/01/23 10:09:09;;;;;;;32.78;22.25;;;;;;;;;;5095143;28;20178;-76
2021/01/23 10:11:35;;;;;;;36.30;24.17;;;;;;;;;;5091388;28;20242;-76
2021/01/23 10:14:01;;;;;;;37.00;23.98;;;;;;;;;;5088460;28;20210;-72
2021/01/23 10:16:27;;;;;;;37.30;24.45;;;;;;;;;;5072112;28;20212;-74
2021/01/23 10:18:53;;;;;;;37.13;24.48;;;;;;;;;;5070823;28;20176;-76
2021/01/23 10:21:19;;;;;;;32.13;22.88;;;;;;;;;;5087318;28;20186;-74
2021/01/23 10:23:45;;;;;;;33.65;23.42;;;;;;;;;;5078435;28;20184;-72
2021/01/23 10:26:11;;;;;;;37.25;24.48;;;;;;;;;;5085684;28;20183;-77
2021/01/23 10:28:37;;;;;;;38.15;23.65;;;;;;;;;;5091098;28;20180;-74
2021/01/23 10:31:03;;;;;;;37.65;23.33;;;;;;;;;;5077531;28;20179;-73
2021/01/23 10:33:29;;;;;;;35.38;23.48;;;;;;;;;;5090101;28;20203;-74
2021/01/23 10:35:55;;;;;;;38.15;25.50;;;;;;;;;;5073582;28;20185;-73
2021/01/23 10:38:21;;;;;;;32.17;23.42;;;;;;;;;;5070367;28;20179;-71
2021/01/23 10:40:47;;;;;;;33.25;24.02;;;;;;;;;;5075115;28;20179;-73
2021/01/23 10:43:14;;;;;;;40.60;25.23;;;;;;;;;;5090624;28;20623;-74
2021/01/23 10:45:40;;;;;;;36.45;25.50;;;;;;;;;;5089709;28;20707;-73
2021/01/23 10:48:08;;;;;;;32.42;23.70;;;;;;;;;;5077798;28;20906;-74
2021/01/23 10:50:34;;;;;;;36.40;24.92;;;;;;;;;;5071890;28;20233;-74
2021/01/23 10:53:00;;;;;;;34.08;23.70;;;;;;;;;;5088209;28;20706;-74
2021/01/23 10:55:27;;;;;;;33.58;24.08;;;;;;;;;;5070205;28;20195;-73
2021/01/23 10:57:53;;;;;;;35.22;23.83;;;;;;;;;;5076023;28;20507;-76
2021/01/23 11:00:20;;;;;;;31.05;21.83;;;;;;;;;;5070262;28;20222;-75
2021/01/23 11:02:46;;;;;;;31.83;22.63;;;;;;;;;;5076072;28;20226;-72
2021/01/23 11:05:12;;;;;;;31.13;23.00;;;;;;;;;;5069628;28;20264;-72
2021/01/23 11:07:38;;;;;;;31.33;22.15;;;;;;;;;;5074891;28;20216;-77
2021/01/23 11:10:05;;;;;;;34.78;23.75;;;;;;;;;;5086599;28;20199;-77
2021/01/23 11:12:31;;;;;;;30.60;21.85;;;;;;;;;;5073311;28;20269;-76
2021/01/23 11:14:57;;;;;;;34.63;23.10;;;;;;;;;;5069429;28;20211;-75
2021/01/23 11:17:23;;;;;;;33.38;21.25;;;;;;;;;;5071605;28;20656;-74
2021/01/23 11:19:49;;;;;;;34.90;22.88;;;;;;;;;;5089818;28;20540;-75
2021/01/23 11:22:15;;;;;;;30.15;21.35;;;;;;;;;;5075753;28;20208;-74
2021/01/23 11:24:41;;;;;;;28.20;21.08;;;;;;;;;;5069286;28;20180;-75
2021/01/23 11:27:07;;;;;;;31.42;21.30;;;;;;;;;;5083095;28;20225;-74
2021/01/23 11:29:34;;;;;;;28.13;19.70;;;;;;;;;;5083798;28;20611;-75
2021/01/23 11:32:00;;;;;;;26.80;20.38;;;;;;;;;;5088879;28;20288;-73
2021/01/23 11:34:26;;;;;;;27.83;20.20;;;;;;;;;;5082478;28;20302;-77
2021/01/23 11:36:52;;;;;;;29.73;21.50;;;;;;;;;;5069516;28;20187;-74
2021/01/23 11:39:19;;;;;;;28.08;21.08;;;;;;;;;;5069496;28;20171;-72
2021/01/23 11:41:45;;;;;;;32.30;23.58;;;;;;;;;;5069184;28;20199;-77
2021/01/23 11:44:11;;;;;;;31.45;21.85;;;;;;;;;;5078160;28;20278;-73
2021/01/23 11:46:38;;;;;;;26.98;22.73;;;;;;;;;;5075304;28;20179;-74
2021/01/23 11:49:04;;;;;;;29.88;22.38;;;;;;;;;;5083728;28;20190;-72
2021/01/23 11:51:33;;;;;;;31.52;22.85;;;;;;;;;;5075835;28;20187;-73
2021/01/23 11:53:59;;;;;;;32.08;22.52;;;;;;;;;;5068877;28;20196;-74
2021/01/23 11:56:26;;;;;;;27.63;20.05;;;;;;;;;;5069447;28;20203;-74
2021/01/23 11:58:53;;;;;;;29.63;21.20;;;;;;;;;;5072930;28;20171;-74
2021/01/23 12:01:19;;;;;;;33.67;21.90;;;;;;;;;;5086388;28;20224;-76
2021/01/23 12:03:45;;;;;;;26.10;19.45;;;;;;;;;;5089189;28;20175;-76
2021/01/23 12:06:11;;;;;;;29.58;21.27;;;;;;;;;;5077870;28;20202;-75
2021/01/23 12:08:37;;;;;;;29.08;19.92;;;;;;;;;;5093164;28;20221;-73
2021/01/23 12:11:03;;;;;;;24.23;16.55;;;;;;;;;;5078764;28;20184;-75
2021/01/23 12:13:29;;;;;;;17.75;13.13;;;;;;;;;;5085045;28;20610;-74
2021/01/23 12:15:55;;;;;;;21.23;14.93;;;;;;;;;;5088860;28;20187;-72
2021/01/23 12:18:21;;;;;;;15.70;11.90;;;;;;;;;;5073128;28;20803;-73
2021/01/23 12:20:48;;;;;;;23.05;12.80;;;;;;;;;;5086815;28;20179;-76
2021/01/23 12:23:14;;;;;;;19.40;11.93;;;;;;;;;;5081213;28;20321;-76
2021/01/23 12:25:40;;;;;;;16.80;11.30;;;;;;;;;;5074565;28;20330;-74
2021/01/23 12:28:06;;;;;;;16.98;11.05;;;;;;;;;;5085657;28;20737;-72
2021/01/23 12:30:32;;;;;;;16.98;11.40;;;;;;;;;;5093042;28;20194;-72
2021/01/23 12:32:58;;;;;;;12.70;10.98;;;;;;;;;;5093093;28;20226;-75
2021/01/23 12:35:25;;;;;;;17.75;10.85;;;;;;;;;;5095283;28;20181;-74
2021/01/23 12:37:57;;;;;;;16.63;11.63;;;;;;;;;;5093592;28;20497;-75
2021/01/23 12:40:23;;;;;;;15.27;11.18;;;;;;;;;;5089538;28;20179;-77
2021/01/23 12:42:49;;;;;;;15.00;12.10;;;;;;;;;;5079237;28;20260;-76
2021/01/23 12:45:15;;;;;;;15.18;11.30;;;;;;;;;;5092435;28;20183;-74
2021/01/23 12:47:41;;;;;;;19.23;14.50;;;;;;;;;;5082731;28;20579;-73
2021/01/23 12:50:07;;;;;;;22.58;18.92;;;;;;;;;;5072183;28;20188;-74
2021/01/23 12:52:34;;;;;;;15.40;11.75;;;;;;;;;;5072281;28;20204;-76
2021/01/23 12:55:00;;;;;;;19.23;11.73;;;;;;;;;;5071916;28;20226;-75
2021/01/23 12:57:26;;;;;;;15.50;11.15;;;;;;;;;;5082290;28;20228;-73
2021/01/23 12:59:52;;;;;;;14.85;10.43;;;;;;;;;;5075840;28;20200;-73
2021/01/23 13:02:18;;;;;;;15.45;10.65;;;;;;;;;;5073571;28;20196;-73
2021/01/23 13:04:44;;;;;;;14.52;10.10;;;;;;;;;;5089328;28;20176;-76
2021/01/23 13:07:10;;;;;;;14.65;9.77;;;;;;;;;;5095156;28;20195;-73
2021/01/23 13:09:36;;;;;;;13.23;8.43;;;;;;;;;;5087625;28;20638;-74
2021/01/23 13:12:03;;;;;;;13.00;10.40;;;;;;;;;;5081252;28;20253;-73
2021/01/23 13:14:29;;;;;;;12.98;9.77;;;;;;;;;;5078394;28;20944;-74
2021/01/23 13:16:56;;;;;;;12.50;9.35;;;;;;;;;;5072192;28;20180;-74
2021/01/23 13:19:25;;;;;;;16.10;11.15;;;;;;;;;;5087256;28;20214;-72
2021/01/23 13:21:51;;;;;;;13.25;9.98;;;;;;;;;;5092065;28;20210;-76
2021/01/23 13:24:17;;;;;;;14.85;9.88;;;;;;;;;;5091537;28;20182;-73
2021/01/23 13:26:43;;;;;;;12.93;9.85;;;;;;;;;;5091978;28;20175;-73
2021/01/23 13:29:09;;;;;;;11.98;9.48;;;;;;;;;;5089616;28;20188;-75
2021/01/23 13:31:35;;;;;;;13.43;9.73;;;;;;;;;;5084774;28;20299;-74
2021/01/23 13:34:01;;;;;;;18.35;16.10;;;;;;;;;;5090480;28;20203;-76
2021/01/23 13:36:27;;;;;;;15.95;10.40;;;;;;;;;;5092154;28;20172;-75
2021/01/23 13:38:53;;;;;;;12.25;9.13;;;;;;;;;;5089441;28;20708;-75
2021/01/23 13:41:19;;;;;;;14.20;9.63;;;;;;;;;;5073081;28;20176;-77
2021/01/23 13:43:45;;;;;;;11.52;9.25;;;;;;;;;;5081033;28;20751;-74
2021/01/23 13:46:11;;;;;;;12.55;10.23;;;;;;;;;;5074679;28;20179;-73
2021/01/23 13:48:37;;;;;;;12.10;9.23;;;;;;;;;;5083289;28;20183;-75
2021/01/23 13:51:04;;;;;;;14.50;9.95;;;;;;;;;;5083839;28;20540;-74
2021/01/23 13:53:30;;;;;;;14.60;9.88;;;;;;;;;;5085387;28;20218;-76
2021/01/23 13:55:56;;;;;;;11.63;8.85;;;;;;;;;;5080708;28;20197;-74
2021/01/23 13:58:23;;;;;;;14.77;10.27;;;;;;;;;;5089564;28;20675;-74
2021/01/23 14:00:51;;;;;;;14.40;9.40;;;;;;;;;;5072667;28;20187;-74
2021/01/23 14:03:17;;;;;;;14.07;9.05;;;;;;;;;;5084536;28;20204;-72
2021/01/23 14:05:43;;;;;;;10.68;8.60;;;;;;;;;;5081756;28;20195;-75
2021/01/23 14:08:09;;;;;;;11.45;9.02;;;;;;;;;;5073018;28;20184;-71
2021/01/23 14:10:35;;;;;;;10.98;9.80;;;;;;;;;;5088285;28;20594;-75
2021/01/23 14:13:01;;;;;;;13.05;9.32;;;;;;;;;;5084358;28;20277;-75
2021/01/23 14:15:27;;;;;;;13.52;10.23;;;;;;;;;;5070360;28;20180;-74
2021/01/23 14:17:53;;;;;;;14.65;9.25;;;;;;;;;;5073522;28;20176;-76